Time;durP1;ratioP1;P1;durP2;ratioP2;P2;SDS_P1;SDS_P2;PMS_P1;PMS_P2;Temp;Humidity;BMP_temperature;BMP_pressure;BME280_temperature;BME280_humidity;BME280_pressure;Samples;Min_cycle;Max_cycle;Signal;HPM_P1;HPM_P2
2022/11/08 00:03:57;;;;;;;6.10;2.47;;;20.60;57.40;;;;;;5111029;28;20493;-82
2022/11/08 00:14:41;;;;;;;4.97;2.23;;;20.60;57.50;;;;;;5114178;28;20479;-83
2022/11/08 00:17:10;;;;;;;3.10;2.07;;;20.60;57.50;;;;;;5107003;28;20425;-83
2022/11/08 00:19:39;;;;;;;3.47;2.20;;;20.60;57.50;;;;;;5113540;28;20517;-82
2022/11/08 00:22:07;;;;;;;4.03;2.40;;;20.60;57.50;;;;;;5113955;28;20443;-81
2022/11/08 00:24:35;;;;;;;5.87;2.93;;;20.70;57.50;;;;;;5114360;28;21013;-82
2022/11/08 00:27:04;;;;;;;6.23;2.67;;;20.60;57.30;;;;;;5099002;28;20495;-82
2022/11/08 00:29:33;;;;;;;2.80;2.30;;;20.60;57.40;;;;;;5103781;28;20443;-82
2022/11/08 00:32:01;;;;;;;5.67;2.70;;;20.60;57.40;;;;;;5110814;28;20455;-82
2022/11/08 00:34:29;;;;;;;4.70;2.67;;;20.70;57.50;;;;;;5112307;28;20475;-82
2022/11/08 00:36:58;;;;;;;3.10;2.30;;;20.70;57.40;;;;;;5100084;28;20542;-82
2022/11/08 00:39:26;;;;;;;5.00;2.40;;;20.70;57.30;;;;;;5111826;28;20451;-82
2022/11/08 00:41:54;;;;;;;2.77;2.50;;;20.70;57.30;;;;;;5112787;28;20448;-82
2022/11/08 00:44:22;;;;;;;3.23;2.33;;;20.70;57.30;;;;;;5112610;28;20471;-82
2022/11/08 00:46:50;;;;;;;6.77;3.00;;;20.70;57.30;;;;;;5118539;28;20440;-82
2022/11/08 00:49:18;;;;;;;3.20;2.17;;;20.70;57.80;;;;;;5117543;28;20443;-82
2022/11/08 00:51:46;;;;;;;3.47;2.60;;;20.70;57.30;;;;;;5116259;28;20452;-81
2022/11/08 00:54:17;;;;;;;5.23;2.50;;;20.70;57.20;;;;;;5115931;28;20479;-82
2022/11/08 00:56:45;;;;;;;5.60;2.30;;;20.70;57.20;;;;;;5118688;27;20470;-82
2022/11/08 00:59:14;;;;;;;4.10;2.87;;;20.70;57.30;;;;;;5110732;27;20462;-82
2022/11/08 01:01:42;;;;;;;3.53;2.20;;;20.70;57.20;;;;;;5122410;27;20448;-83
2022/11/08 01:04:11;;;;;;;6.03;2.53;;;20.70;57.30;;;;;;5122872;27;20466;-82
2022/11/08 01:06:39;;;;;;;8.70;2.60;;;20.60;57.20;;;;;;5121945;27;20459;-84
2022/11/08 01:09:07;;;;;;;5.60;2.13;;;20.70;57.30;;;;;;5104426;28;20456;-82
2022/11/08 01:11:37;;;;;;;3.97;2.50;;;20.70;57.30;;;;;;5113422;28;20826;-83
2022/11/08 01:14:06;;;;;;;5.67;3.37;;;20.70;57.20;;;;;;5118018;27;20454;-81
2022/11/08 01:16:34;;;;;;;5.73;4.00;;;20.60;57.30;;;;;;5116054;28;20443;-82
2022/11/08 01:19:02;;;;;;;8.07;5.20;;;20.70;57.30;;;;;;5115371;28;20446;-81
2022/11/08 01:21:30;;;;;;;8.63;5.10;;;20.60;57.30;;;;;;5115681;28;20435;-82
2022/11/08 01:23:58;;;;;;;6.40;4.80;;;20.70;57.30;;;;;;5115170;28;20472;-82
2022/11/08 01:26:27;;;;;;;8.73;5.43;;;20.60;57.30;;;;;;5113225;28;20451;-82
2022/11/08 01:28:57;;;;;;;8.53;4.70;;;20.70;57.20;;;;;;5115382;28;20440;-82
2022/11/08 01:31:26;;;;;;;7.70;4.63;;;20.70;57.30;;;;;;5116015;28;20440;-82
2022/11/08 01:33:54;;;;;;;9.93;4.90;;;20.70;57.30;;;;;;5120758;28;20461;-82
2022/11/08 01:36:24;;;;;;;9.33;4.90;;;20.70;57.40;;;;;;5115308;28;20428;-82
2022/11/08 01:38:53;;;;;;;6.37;4.70;;;20.70;57.30;;;;;;5115405;28;20470;-82
2022/11/08 01:41:21;;;;;;;6.83;4.43;;;20.70;57.30;;;;;;5115273;28;20447;-82
2022/11/08 01:43:49;;;;;;;8.33;4.20;;;20.70;57.40;;;;;;5112002;28;20468;-82
2022/11/08 01:46:46;;;;;;;7.97;4.37;;;20.60;57.30;;;;;;5114803;28;20444;-82
2022/11/08 01:49:35;;;;;;;6.53;3.83;;;20.70;57.30;;;;;;5115268;28;20436;-82
2022/11/08 01:52:07;;;;;;;6.37;4.03;;;20.60;57.30;;;;;;5111063;28;20421;-83
2022/11/08 01:54:37;;;;;;;5.80;3.80;;;20.60;57.40;;;;;;5114846;28;20450;-82
2022/11/08 01:57:06;;;;;;;7.50;3.70;;;20.60;57.40;;;;;;5114187;28;20459;-82
2022/11/08 01:59:34;;;;;;;7.13;4.17;;;20.60;57.30;;;;;;5114373;28;20811;-82
2022/11/08 02:02:04;;;;;;;6.10;3.97;;;20.60;57.40;;;;;;5113862;28;20455;-83
2022/11/08 02:04:32;;;;;;;5.53;3.73;;;20.60;57.30;;;;;;5116325;28;20467;-82
2022/11/08 02:07:01;;;;;;;8.40;4.80;;;20.60;57.30;;;;;;5114768;28;20477;-82
2022/11/08 02:09:29;;;;;;;6.93;4.20;;;20.60;57.40;;;;;;5118615;28;20451;-82
2022/11/08 02:11:57;;;;;;;6.00;3.90;;;20.60;57.40;;;;;;5117781;28;20787;-83
2022/11/08 02:14:25;;;;;;;5.83;3.70;;;20.50;57.30;;;;;;5118703;28;20459;-82
2022/11/08 02:16:54;;;;;;;5.73;3.80;;;20.50;57.40;;;;;;5115455;28;20453;-84
2022/11/08 02:19:27;;;;;;;5.93;3.40;;;20.50;57.40;;;;;;5114666;28;20440;-82
2022/11/08 02:21:56;;;;;;;6.50;3.63;;;20.50;57.40;;;;;;5112889;28;20448;-82
2022/11/08 02:24:25;;;;;;;5.60;3.80;;;20.50;57.40;;;;;;5114717;28;20478;-82
2022/11/08 02:26:54;;;;;;;3.63;3.20;;;20.50;57.40;;;;;;5108695;28;20455;-82
2022/11/08 02:29:26;;;;;;;7.73;3.90;;;20.40;57.30;;;;;;5115338;28;20478;-80
2022/11/08 02:31:55;;;;;;;9.70;3.67;;;20.50;57.40;;;;;;5111383;28;20449;-82
2022/11/08 02:34:25;;;;;;;5.00;3.37;;;20.40;57.30;;;;;;5113301;28;20473;-82
2022/11/08 02:36:53;;;;;;;5.30;3.30;;;20.40;57.30;;;;;;5123422;27;20451;-82
2022/11/08 02:39:22;;;;;;;6.33;3.50;;;20.40;57.40;;;;;;5113930;27;20448;-82
2022/11/08 02:41:51;;;;;;;4.33;3.13;;;20.40;57.30;;;;;;5127097;27;20576;-82
2022/11/08 02:44:20;;;;;;;5.90;3.20;;;20.40;57.30;;;;;;5113277;27;20471;-83
2022/11/08 02:46:48;;;;;;;6.80;3.90;;;20.40;57.40;;;;;;5116657;28;20436;-83
2022/11/08 02:49:16;;;;;;;7.47;3.57;;;20.40;57.40;;;;;;5113626;28;20452;-83
2022/11/08 02:51:44;;;;;;;7.67;3.67;;;20.30;57.40;;;;;;5114385;28;20448;-84
2022/11/08 02:54:13;;;;;;;9.33;3.23;;;20.30;57.50;;;;;;5108230;28;20476;-82
2022/11/08 02:56:41;;;;;;;4.67;3.17;;;20.30;57.40;;;;;;5099115;28;20491;-84
2022/11/08 02:59:10;;;;;;;4.40;2.80;;;20.30;57.90;;;;;;5118784;28;20444;-84
2022/11/08 03:01:38;;;;;;;5.97;3.30;;;20.30;57.30;;;;;;5116681;27;20452;-82
2022/11/08 03:04:07;;;;;;;5.77;3.13;;;20.20;57.30;;;;;;5124139;27;20476;-84
2022/11/08 03:06:34;;;;;;;7.57;3.60;;;20.20;57.40;;;;;;5119433;27;20474;-84
2022/11/08 03:09:03;;;;;;;4.40;3.00;;;20.20;57.40;;;;;;5107008;28;20464;-84
2022/11/08 03:11:31;;;;;;;4.20;3.00;;;20.20;57.40;;;;;;5115686;28;20456;-84
2022/11/08 03:13:59;;;;;;;5.80;3.40;;;20.20;57.30;;;;;;5111872;28;20471;-84
2022/11/08 03:16:29;;;;;;;8.50;3.37;;;20.20;57.40;;;;;;5131491;27;20451;-83
2022/11/08 03:18:58;;;;;;;8.03;3.00;;;20.20;57.30;;;;;;5119948;27;20448;-83
2022/11/08 03:21:26;;;;;;;8.67;2.97;;;20.20;57.30;;;;;;5128656;27;20455;-82
2022/11/08 03:23:54;;;;;;;7.00;3.33;;;20.20;57.30;;;;;;5127679;27;20448;-86
2022/11/08 03:26:22;;;;;;;6.17;3.10;;;20.10;57.20;;;;;;5133914;27;20467;-86
2022/11/08 03:28:49;;;;;;;3.70;2.80;;;20.10;57.30;;;;;;5130750;27;20436;-87
2022/11/08 03:31:18;;;;;;;7.73;3.30;;;20.10;57.30;;;;;;5140688;27;20442;-85
2022/11/08 03:33:47;;;;;;;7.17;3.47;;;20.10;57.30;;;;;;5140726;27;20444;-86
2022/11/08 03:36:14;;;;;;;4.17;2.73;;;20.10;57.20;;;;;;5140355;27;20430;-87
2022/11/08 03:38:42;;;;;;;6.47;2.63;;;20.10;57.30;;;;;;5127575;28;20446;-86
2022/11/08 03:41:10;;;;;;;4.50;2.73;;;20.10;57.30;;;;;;5134636;28;20448;-87
2022/11/08 03:43:38;;;;;;;4.30;2.73;;;20.00;57.20;;;;;;5138588;28;20519;-87
2022/11/08 03:46:07;;;;;;;5.83;3.80;;;20.10;57.20;;;;;;5138085;28;20471;-88
2022/11/08 03:48:35;;;;;;;3.00;2.50;;;20.10;57.10;;;;;;5138731;28;20428;-88
2022/11/08 03:51:04;;;;;;;3.30;2.40;;;20.00;57.20;;;;;;5144355;27;20439;-85
2022/11/08 03:53:32;;;;;;;4.87;2.70;;;20.00;57.20;;;;;;5137819;27;20489;-83
2022/11/08 03:56:01;;;;;;;4.80;2.60;;;20.00;57.20;;;;;;5121759;28;20444;-84
2022/11/08 03:58:29;;;;;;;3.97;2.70;;;20.00;57.20;;;;;;5127670;27;20457;-83
2022/11/08 04:00:58;;;;;;;5.37;2.90;;;20.00;57.20;;;;;;5121847;27;20452;-83
2022/11/08 04:03:26;;;;;;;7.00;2.83;;;20.00;57.20;;;;;;5124041;27;20466;-83
2022/11/08 04:05:55;;;;;;;3.80;2.47;;;20.00;57.20;;;;;;5119862;27;20470;-82
2022/11/08 04:08:24;;;;;;;4.37;2.67;;;20.00;57.20;;;;;;5114931;28;20459;-82
2022/11/08 04:10:54;;;;;;;5.30;2.80;;;19.90;57.10;;;;;;5101637;28;20977;-83
2022/11/08 04:16:08;;;;;;;4.90;2.53;;;19.90;57.30;;;;;;5114349;28;20443;-82
2022/11/08 04:21:27;;;;;;;7.53;3.30;;;19.90;57.20;;;;;;5113319;28;20446;-81
2022/11/08 04:23:56;;;;;;;5.27;2.63;;;19.90;57.20;;;;;;5110980;28;20456;-83
2022/11/08 04:26:24;;;;;;;4.97;2.83;;;19.90;57.20;;;;;;5109541;28;20462;-83
2022/11/08 04:28:52;;;;;;;8.40;2.70;;;19.90;57.20;;;;;;5110845;28;20475;-82
2022/11/08 04:31:20;;;;;;;2.50;2.30;;;19.90;57.20;;;;;;5118708;28;20458;-82
2022/11/08 04:33:49;;;;;;;3.70;2.53;;;19.90;57.20;;;;;;5107223;28;20464;-81
2022/11/08 04:36:17;;;;;;;7.30;2.47;;;19.90;57.20;;;;;;5106228;28;20449;-82
2022/11/08 04:38:47;;;;;;;4.70;2.80;;;19.90;57.20;;;;;;5120406;28;20451;-82
2022/11/08 04:41:18;;;;;;;5.63;2.87;;;19.90;57.20;;;;;;5108184;28;20457;-84
2022/11/08 04:43:46;;;;;;;6.43;2.80;;;19.90;57.20;;;;;;5124704;28;20476;-83
2022/11/08 04:46:15;;;;;;;3.67;2.30;;;19.90;57.20;;;;;;5115868;28;20494;-84
2022/11/08 04:48:44;;;;;;;3.13;2.60;;;19.90;57.20;;;;;;5117419;28;20447;-84
2022/11/08 04:51:12;;;;;;;5.83;2.97;;;19.80;57.30;;;;;;5120828;28;20538;-83
2022/11/08 04:53:40;;;;;;;3.70;2.50;;;19.80;57.20;;;;;;5107409;28;20471;-84
2022/11/08 04:56:09;;;;;;;3.10;2.20;;;19.80;57.20;;;;;;5105818;28;20448;-84
2022/11/08 04:58:40;;;;;;;3.10;2.20;;;19.80;57.20;;;;;;5126145;28;20463;-85
2022/11/08 05:01:09;;;;;;;5.50;2.80;;;19.80;57.20;;;;;;5115471;28;20455;-84
2022/11/08 05:03:37;;;;;;;3.23;2.40;;;19.80;57.30;;;;;;5127765;27;20571;-83
2022/11/08 05:06:06;;;;;;;4.00;2.60;;;19.80;57.20;;;;;;5113533;28;20467;-84
2022/11/08 05:08:35;;;;;;;5.20;2.30;;;19.70;57.10;;;;;;5115806;28;20463;-84
2022/11/08 05:11:03;;;;;;;4.63;2.53;;;19.70;57.10;;;;;;5099878;28;20459;-84
2022/11/08 05:13:31;;;;;;;8.50;3.00;;;19.70;57.20;;;;;;5127844;28;20487;-84
2022/11/08 05:16:01;;;;;;;6.47;2.57;;;19.70;57.20;;;;;;5110340;28;20463;-84
2022/11/08 05:18:30;;;;;;;4.60;2.37;;;19.70;57.20;;;;;;5118613;28;20462;-83
2022/11/08 05:23:44;;;;;;;3.43;2.33;;;19.70;57.20;;;;;;5115799;28;20464;-83
2022/11/08 05:26:12;;;;;;;5.00;2.60;;;19.70;57.30;;;;;;5116818;28;20467;-84
2022/11/08 05:28:40;;;;;;;4.60;2.77;;;19.70;57.20;;;;;;5127619;28;20451;-84
2022/11/08 05:31:10;;;;;;;3.47;2.37;;;19.70;57.30;;;;;;5113702;28;20437;-83
2022/11/08 05:33:38;;;;;;;6.07;2.43;;;19.70;57.20;;;;;;5117402;28;20483;-83
2022/11/08 05:36:07;;;;;;;5.40;3.10;;;19.70;57.20;;;;;;5105809;28;20459;-85
2022/11/08 05:38:35;;;;;;;5.70;2.30;;;19.60;57.20;;;;;;5129137;27;20453;-83
2022/11/08 05:41:04;;;;;;;3.50;2.40;;;19.60;57.20;;;;;;5123896;27;20439;-85
2022/11/08 05:43:31;;;;;;;5.17;2.33;;;19.60;57.20;;;;;;5124202;27;20482;-83
2022/11/08 05:46:00;;;;;;;3.90;2.50;;;19.60;57.10;;;;;;5123218;27;20513;-84
2022/11/08 05:48:29;;;;;;;7.80;2.50;;;19.60;57.20;;;;;;5123484;27;20452;-84
2022/11/08 05:50:57;;;;;;;6.70;2.70;;;19.60;57.20;;;;;;5103669;28;20444;-84
2022/11/08 05:53:25;;;;;;;3.60;2.10;;;19.60;57.20;;;;;;5126298;27;20468;-85
2022/11/08 05:55:57;;;;;;;3.73;2.50;;;19.60;57.20;;;;;;5123411;27;20444;-84
2022/11/08 05:58:25;;;;;;;2.40;2.10;;;19.60;57.20;;;;;;5125017;27;20448;-85
2022/11/08 06:00:59;;;;;;;3.10;2.50;;;19.50;57.20;;;;;;5137779;27;20460;-84
2022/11/08 06:03:29;;;;;;;7.67;2.87;;;19.60;57.20;;;;;;5120138;27;20470;-84
2022/11/08 06:06:01;;;;;;;3.90;2.40;;;19.60;57.30;;;;;;5117123;28;20468;-82
2022/11/08 06:08:29;;;;;;;8.10;2.77;;;19.60;57.20;;;;;;5130448;27;20448;-84
2022/11/08 06:11:02;;;;;;;4.63;2.17;;;19.50;57.20;;;;;;5121741;28;20456;-84
2022/11/08 06:13:30;;;;;;;5.03;2.60;;;19.50;57.30;;;;;;5126351;27;20472;-83
2022/11/08 06:16:00;;;;;;;2.50;2.30;;;19.50;57.30;;;;;;5125502;27;20446;-84
2022/11/08 06:18:30;;;;;;;5.60;2.30;;;19.50;57.40;;;;;;5123953;27;20448;-84
2022/11/08 06:20:58;;;;;;;6.57;2.50;;;19.50;57.30;;;;;;5103499;28;20448;-83
2022/11/08 06:23:26;;;;;;;3.90;2.60;;;19.50;57.40;;;;;;5121192;28;20489;-85
2022/11/08 06:25:54;;;;;;;2.80;2.30;;;19.50;57.40;;;;;;5124821;28;20432;-84
2022/11/08 06:28:22;;;;;;;2.20;2.00;;;19.50;57.30;;;;;;5119835;27;20532;-84
2022/11/08 06:30:50;;;;;;;5.60;2.73;;;19.50;57.40;;;;;;5127721;27;20447;-83
2022/11/08 06:33:18;;;;;;;3.87;2.40;;;19.50;58.00;;;;;;5126673;27;20467;-84
2022/11/08 06:35:48;;;;;;;3.67;2.50;;;19.50;57.30;;;;;;5129905;27;20452;-83
2022/11/08 06:38:16;;;;;;;4.93;2.30;;;19.50;57.30;;;;;;5125411;27;20464;-84
2022/11/08 06:40:44;;;;;;;3.00;2.37;;;19.40;57.20;;;;;;5124570;28;20447;-84
2022/11/08 06:43:13;;;;;;;5.40;2.37;;;19.40;57.30;;;;;;5123249;28;20474;-85
2022/11/08 06:45:46;;;;;;;6.73;2.47;;;19.40;57.10;;;;;;5115108;27;20443;-84
2022/11/08 06:48:14;;;;;;;4.50;2.00;;;19.40;57.20;;;;;;5126521;27;20471;-84
2022/11/08 06:50:42;;;;;;;3.90;2.60;;;19.40;57.10;;;;;;5113130;28;20440;-85
2022/11/08 06:53:13;;;;;;;3.53;2.43;;;19.40;57.10;;;;;;5125037;27;20452;-84
2022/11/08 06:55:41;;;;;;;5.80;2.60;;;19.40;57.10;;;;;;5129238;27;20436;-84
2022/11/08 06:58:09;;;;;;;4.10;2.13;;;19.40;57.10;;;;;;5127513;27;20444;-83
2022/11/08 07:00:37;;;;;;;2.30;2.10;;;19.40;57.20;;;;;;5114012;28;20454;-84
2022/11/08 07:03:06;;;;;;;5.33;2.30;;;19.40;57.00;;;;;;5129017;27;20451;-85
2022/11/08 07:05:34;;;;;;;5.63;2.17;;;19.50;57.10;;;;;;5121828;27;20497;-85
2022/11/08 07:08:03;;;;;;;4.73;2.37;;;19.40;57.00;;;;;;5127691;27;20485;-82
2022/11/08 07:10:33;;;;;;;4.43;2.83;;;19.50;57.10;;;;;;5128480;27;20454;-84
2022/11/08 07:13:02;;;;;;;2.23;2.03;;;19.50;57.00;;;;;;5126446;27;20454;-82
2022/11/08 07:15:30;;;;;;;3.20;2.30;;;19.50;56.90;;;;;;5109909;28;20444;-83
2022/11/08 07:18:02;;;;;;;2.93;1.87;;;19.50;56.90;;;;;;5117211;28;20447;-83
2022/11/08 07:20:30;;;;;;;4.37;2.53;;;19.60;56.80;;;;;;5119194;28;20424;-84
2022/11/08 07:22:57;;;;;;;3.50;2.10;;;19.50;56.90;;;;;;5122114;27;20448;-84
2022/11/08 07:25:26;;;;;;;4.40;2.37;;;19.60;56.80;;;;;;5127999;27;20455;-83
2022/11/08 07:27:56;;;;;;;3.43;2.13;;;19.60;56.90;;;;;;5123388;27;20487;-84
2022/11/08 07:30:24;;;;;;;3.23;2.33;;;19.60;56.90;;;;;;5119725;28;20452;-84
2022/11/08 07:32:51;;;;;;;3.70;2.30;;;19.60;56.80;;;;;;5122109;28;20435;-84
2022/11/08 07:35:19;;;;;;;2.97;2.10;;;19.70;56.70;;;;;;5123433;28;20434;-84
2022/11/08 07:37:47;;;;;;;4.63;2.20;;;19.70;56.70;;;;;;5124816;28;20448;-83
2022/11/08 07:40:15;;;;;;;4.83;2.20;;;19.70;56.60;;;;;;5123058;27;20461;-84
2022/11/08 07:42:43;;;;;;;3.47;2.27;;;19.70;56.60;;;;;;5117191;28;20456;-85
2022/11/08 07:45:32;;;;;;;5.47;2.17;;;19.70;56.50;;;;;;5117378;28;20501;-85
2022/11/08 07:48:01;;;;;;;5.27;2.20;;;19.70;56.60;;;;;;5118332;27;20475;-84
2022/11/08 07:50:37;;;;;;;3.03;2.13;;;19.70;56.50;;;;;;5110844;28;20455;-84
2022/11/08 07:53:05;;;;;;;3.80;1.80;;;19.80;56.40;;;;;;5099023;28;20919;-84
2022/11/08 07:55:35;;;;;;;5.03;2.00;;;19.80;56.30;;;;;;5098579;28;20447;-84
2022/11/08 07:58:03;;;;;;;3.43;2.00;;;19.80;56.30;;;;;;5103780;28;20456;-84
2022/11/08 08:00:35;;;;;;;2.60;1.83;;;19.90;56.30;;;;;;5123887;27;20451;-84
2022/11/08 08:03:03;;;;;;;5.03;1.90;;;19.90;56.10;;;;;;5122080;27;20825;-84
2022/11/08 08:05:33;;;;;;;5.23;2.13;;;20.00;56.20;;;;;;5119200;27;20471;-84
2022/11/08 08:08:02;;;;;;;3.17;1.80;;;20.00;56.00;;;;;;5119411;27;20475;-84
2022/11/08 08:10:30;;;;;;;2.40;1.73;;;20.10;55.90;;;;;;5112243;28;20471;-83
2022/11/08 08:12:58;;;;;;;2.17;1.90;;;20.10;56.00;;;;;;5125596;28;20475;-84
2022/11/08 08:15:26;;;;;;;4.07;2.40;;;20.20;55.90;;;;;;5113504;28;20432;-84
2022/11/08 08:17:56;;;;;;;2.23;2.03;;;20.20;55.80;;;;;;5133292;27;20442;-82
2022/11/08 08:20:24;;;;;;;2.60;1.90;;;20.20;55.90;;;;;;5122837;28;20448;-85
2022/11/08 08:22:52;;;;;;;4.80;2.27;;;20.30;55.80;;;;;;5102142;28;20448;-85
2022/11/08 08:25:20;;;;;;;2.20;1.80;;;20.40;55.90;;;;;;5117922;28;20444;-84
2022/11/08 08:27:48;;;;;;;2.67;1.80;;;20.40;55.80;;;;;;5105441;28;20480;-84
2022/11/08 08:30:17;;;;;;;4.37;2.03;;;20.50;55.80;;;;;;5103070;28;20460;-84
2022/11/08 08:32:45;;;;;;;2.60;1.90;;;20.50;55.60;;;;;;5120899;28;20459;-84
2022/11/08 08:35:25;;;;;;;2.00;1.80;;;20.60;55.80;;;;;;5108176;28;20457;-84
2022/11/08 08:37:57;;;;;;;2.80;1.93;;;20.60;55.70;;;;;;5106184;28;20456;-84
2022/11/08 08:40:25;;;;;;;3.13;1.93;;;20.60;55.50;;;;;;5119276;28;20448;-86
2022/11/08 08:42:53;;;;;;;2.10;1.73;;;20.70;55.80;;;;;;5120734;28;20473;-86
2022/11/08 08:45:21;;;;;;;7.97;2.10;;;20.70;55.50;;;;;;5112483;28;20452;-84
2022/11/08 08:47:53;;;;;;;2.53;1.80;;;20.70;55.30;;;;;;5109238;28;20482;-86
2022/11/08 08:50:22;;;;;;;3.77;1.70;;;20.80;55.40;;;;;;5111531;28;20452;-85
2022/11/08 08:52:51;;;;;;;2.07;1.70;;;20.80;55.40;;;;;;5124074;28;20447;-84
2022/11/08 08:55:19;;;;;;;3.63;2.00;;;20.80;55.30;;;;;;5113708;28;20452;-84
2022/11/08 08:57:47;;;;;;;4.20;2.07;;;20.80;55.40;;;;;;5115344;28;20438;-84
2022/11/08 09:00:16;;;;;;;2.30;2.07;;;20.80;55.20;;;;;;5112245;28;20452;-84
2022/11/08 09:03:04;;;;;;;2.70;2.07;;;20.80;55.20;;;;;;5108781;28;20453;-84
2022/11/08 09:05:32;;;;;;;2.87;2.17;;;20.80;55.20;;;;;;5119756;28;20440;-83
2022/11/08 09:08:02;;;;;;;6.63;2.10;;;20.90;55.20;;;;;;5121398;28;20508;-84
2022/11/08 09:10:30;;;;;;;2.03;1.93;;;20.90;55.30;;;;;;5124224;28;20454;-84
2022/11/08 09:12:58;;;;;;;2.83;1.80;;;21.00;55.40;;;;;;5124374;28;20444;-84
2022/11/08 09:15:26;;;;;;;2.50;1.70;;;21.10;55.30;;;;;;5124707;28;20515;-84
2022/11/08 09:17:54;;;;;;;1.87;1.60;;;21.20;55.20;;;;;;5124792;28;20420;-84
2022/11/08 09:20:22;;;;;;;3.00;1.87;;;21.40;55.20;;;;;;5122756;28;20444;-84
2022/11/08 09:22:54;;;;;;;3.77;1.70;;;21.50;55.00;;;;;;5101715;28;20519;-84
2022/11/08 09:25:23;;;;;;;2.83;1.83;;;21.80;54.90;;;;;;5102603;28;20441;-84
2022/11/08 09:27:54;;;;;;;2.93;1.87;;;22.00;54.70;;;;;;5101459;28;20448;-84
2022/11/08 09:30:22;;;;;;;2.00;1.77;;;22.20;54.40;;;;;;5101572;28;20444;-84
2022/11/08 09:32:52;;;;;;;1.90;1.80;;;22.30;54.00;;;;;;5101394;28;20449;-84
2022/11/08 09:35:27;;;;;;;3.03;1.70;;;22.40;53.60;;;;;;5110013;28;20451;-84
2022/11/08 09:37:55;;;;;;;2.90;1.87;;;22.40;53.60;;;;;;5115172;28;20444;-84
2022/11/08 09:40:27;;;;;;;4.33;1.83;;;22.50;53.60;;;;;;5121185;28;20428;-84
2022/11/08 09:43:01;;;;;;;1.70;1.60;;;22.60;53.40;;;;;;5121368;28;20440;-84
2022/11/08 09:45:32;;;;;;;2.23;1.63;;;22.70;53.40;;;;;;5123207;28;20463;-84
2022/11/08 09:48:02;;;;;;;2.60;1.43;;;22.80;53.40;;;;;;5123720;28;20410;-83
2022/11/08 09:50:36;;;;;;;2.13;1.90;;;22.80;53.00;;;;;;5123715;28;20450;-84
2022/11/08 09:53:11;;;;;;;1.70;1.60;;;22.90;52.70;;;;;;5119660;28;20456;-84
2022/11/08 09:55:42;;;;;;;3.40;2.00;;;22.80;52.80;;;;;;5114466;28;20439;-85
2022/11/08 09:58:18;;;;;;;2.30;1.70;;;22.80;52.70;;;;;;5120609;28;20445;-83
2022/11/08 10:00:49;;;;;;;2.40;1.57;;;22.90;52.60;;;;;;5121942;28;20439;-85
2022/11/08 10:03:18;;;;;;;3.60;1.70;;;22.80;53.10;;;;;;5122744;28;20459;-83
2022/11/08 10:05:51;;;;;;;1.70;1.50;;;22.80;52.50;;;;;;5125141;28;20451;-82
2022/11/08 10:08:24;;;;;;;5.30;1.60;;;22.80;52.50;;;;;;5120000;28;20460;-84
2022/11/08 10:11:07;;;;;;;2.53;1.80;;;22.80;52.20;;;;;;5118095;28;20457;-84
2022/11/08 10:13:38;;;;;;;3.17;1.53;;;22.80;52.20;;;;;;5104418;28;20539;-85
2022/11/08 10:16:10;;;;;;;1.60;1.50;;;22.80;52.30;;;;;;5123641;28;20424;-83
2022/11/08 10:19:02;;;;;;;4.10;1.63;;;22.80;52.10;;;;;;5123412;28;20440;-84
2022/11/08 10:21:44;;;;;;;1.93;1.53;;;22.80;52.10;;;;;;5123536;28;20440;-82
2022/11/08 10:24:15;;;;;;;3.40;1.67;;;22.80;52.10;;;;;;5123152;28;20464;-85
2022/11/08 10:26:45;;;;;;;2.90;1.57;;;22.80;51.90;;;;;;5123740;28;20432;-84
2022/11/08 10:29:18;;;;;;;1.50;1.40;;;22.90;51.80;;;;;;5124018;28;20478;-84
2022/11/08 10:31:47;;;;;;;2.03;1.57;;;22.90;51.70;;;;;;5122892;28;20451;-85
2022/11/08 10:34:17;;;;;;;2.30;1.57;;;23.00;51.90;;;;;;5122882;28;20472;-84
2022/11/08 10:36:45;;;;;;;2.47;1.33;;;23.00;51.70;;;;;;5123002;28;20451;-84
2022/11/08 10:39:16;;;;;;;5.00;2.00;;;23.10;51.70;;;;;;5123071;28;20459;-84
2022/11/08 10:41:47;;;;;;;1.77;1.43;;;23.10;51.50;;;;;;5120687;28;20456;-84
2022/11/08 10:44:16;;;;;;;1.90;1.50;;;23.20;51.40;;;;;;5112643;28;20475;-84
2022/11/08 10:46:44;;;;;;;1.80;1.70;;;23.10;51.20;;;;;;5118978;28;20450;-84
2022/11/08 10:49:17;;;;;;;2.57;1.53;;;23.10;51.20;;;;;;5118720;28;20471;-83
2022/11/08 10:51:46;;;;;;;1.83;1.50;;;23.10;51.30;;;;;;5118231;28;20421;-84
2022/11/08 10:54:40;;;;;;;2.87;2.03;;;23.20;51.30;;;;;;5119317;28;20464;-83
2022/11/08 10:57:10;;;;;;;1.80;1.60;;;23.10;51.00;;;;;;5122337;28;20543;-84
2022/11/08 10:59:38;;;;;;;4.50;1.90;;;23.10;51.00;;;;;;5120600;28;20440;-83
2022/11/08 11:02:20;;;;;;;2.63;1.67;;;23.10;51.00;;;;;;5122504;28;20444;-84
2022/11/08 11:04:48;;;;;;;2.77;1.80;;;23.20;51.00;;;;;;5122763;28;20446;-82
2022/11/08 11:07:36;;;;;;;2.90;1.70;;;23.20;51.00;;;;;;5120879;28;20435;-84
2022/11/08 11:10:18;;;;;;;3.27;1.40;;;23.30;50.80;;;;;;5122549;28;20518;-83
2022/11/08 11:12:51;;;;;;;1.70;1.60;;;23.40;50.60;;;;;;5121570;28;20444;-83
2022/11/08 11:15:19;;;;;;;2.80;1.40;;;23.50;50.60;;;;;;5100564;28;20500;-83
2022/11/08 11:17:47;;;;;;;2.30;1.37;;;23.60;50.40;;;;;;5100592;28;20455;-81
2022/11/08 11:20:21;;;;;;;1.80;1.60;;;23.80;50.30;;;;;;5118581;28;20443;-83
2022/11/08 11:22:48;;;;;;;2.53;1.80;;;23.80;49.90;;;;;;5120630;28;20440;-85
2022/11/08 11:25:19;;;;;;;4.27;1.73;;;23.90;49.80;;;;;;5120620;28;20473;-85
2022/11/08 11:27:53;;;;;;;1.60;1.40;;;24.10;49.80;;;;;;5121338;28;20439;-84
2022/11/08 11:30:28;;;;;;;2.30;1.53;;;24.20;49.60;;;;;;5110195;28;20831;-83
2022/11/08 11:33:08;;;;;;;2.53;1.90;;;24.30;49.60;;;;;;5097319;28;20470;-81
2022/11/08 11:35:42;;;;;;;1.90;1.40;;;24.50;49.40;;;;;;5102257;28;20473;-83
2022/11/08 11:38:19;;;;;;;1.60;1.50;;;24.70;49.10;;;;;;5120765;28;20439;-82
2022/11/08 11:40:47;;;;;;;2.33;1.60;;;24.80;48.90;;;;;;5110230;28;20503;-84
2022/11/08 11:43:20;;;;;;;1.93;1.60;;;24.70;48.60;;;;;;5097828;28;20492;-83
2022/11/08 11:45:51;;;;;;;1.30;1.20;;;24.70;48.70;;;;;;5101513;28;20505;-82
2022/11/08 11:48:22;;;;;;;1.60;1.50;;;24.60;48.70;;;;;;5109303;28;20440;-83
2022/11/08 11:50:50;;;;;;;2.50;1.57;;;24.60;48.70;;;;;;5117994;28;20558;-81
2022/11/08 11:53:20;;;;;;;2.43;1.57;;;24.60;48.60;;;;;;5120176;28;20463;-83
2022/11/08 11:56:01;;;;;;;2.03;1.70;;;24.60;48.60;;;;;;5119494;28;20440;-83
2022/11/08 11:58:46;;;;;;;3.17;1.30;;;24.50;48.40;;;;;;5118692;28;20406;-82
2022/11/08 12:01:17;;;;;;;2.10;1.40;;;24.40;48.60;;;;;;5118919;28;20442;-84
2022/11/08 12:03:55;;;;;;;1.80;1.70;;;24.30;48.70;;;;;;5115824;28;21030;-83
2022/11/08 12:06:31;;;;;;;2.10;1.90;;;24.20;48.60;;;;;;5119495;28;20447;-84
2022/11/08 12:09:06;;;;;;;2.03;1.80;;;24.20;48.60;;;;;;5119983;28;20442;-83
2022/11/08 12:11:44;;;;;;;1.83;1.70;;;24.10;48.70;;;;;;5119249;28;20451;-84
2022/11/08 12:14:24;;;;;;;1.90;1.40;;;24.00;48.50;;;;;;5119457;28;20466;-84
2022/11/08 12:16:57;;;;;;;2.50;1.80;;;23.90;48.70;;;;;;5118953;28;20428;-83
2022/11/08 12:19:33;;;;;;;1.90;1.40;;;23.80;48.60;;;;;;5118912;28;20440;-83
2022/11/08 12:22:05;;;;;;;2.40;1.80;;;23.80;48.60;;;;;;5118589;28;20436;-81
2022/11/08 12:24:41;;;;;;;1.70;1.60;;;23.70;48.70;;;;;;5119903;28;20463;-84
2022/11/08 12:27:13;;;;;;;2.67;1.50;;;23.80;48.70;;;;;;5118404;28;20439;-83
2022/11/08 12:29:46;;;;;;;3.13;1.70;;;23.80;48.50;;;;;;5118951;28;20468;-83
2022/11/08 12:32:20;;;;;;;1.53;1.40;;;23.80;48.30;;;;;;5120674;28;20454;-83
2022/11/08 12:34:56;;;;;;;1.73;1.63;;;23.90;48.30;;;;;;5118904;28;20471;-82
2022/11/08 12:37:33;;;;;;;1.73;1.63;;;23.90;48.10;;;;;;5128306;28;20461;-85
2022/11/08 12:40:02;;;;;;;3.93;1.67;;;23.90;47.90;;;;;;5113370;28;20415;-84
2022/11/08 12:42:38;;;;;;;2.10;1.80;;;23.90;47.90;;;;;;5100465;28;20452;-84
2022/11/08 12:45:21;;;;;;;1.77;1.67;;;24.00;48.00;;;;;;5114930;27;20478;-84
2022/11/08 12:47:53;;;;;;;2.37;1.70;;;24.10;47.90;;;;;;5118305;28;20428;-84
2022/11/08 12:50:25;;;;;;;4.17;1.57;;;24.10;47.80;;;;;;5121633;28;20464;-86
2022/11/08 12:53:06;;;;;;;2.60;1.50;;;24.10;47.70;;;;;;5111278;28;20448;-85
2022/11/08 12:55:35;;;;;;;1.67;1.57;;;24.10;47.50;;;;;;5109188;28;20444;-84
2022/11/08 12:58:23;;;;;;;1.87;1.50;;;24.00;47.50;;;;;;5118858;28;20440;-83
2022/11/08 13:00:54;;;;;;;2.50;1.73;;;23.90;47.40;;;;;;5122892;28;20444;-84
2022/11/08 13:03:48;;;;;;;1.60;1.50;;;23.80;47.50;;;;;;5121579;28;20468;-83
2022/11/08 13:06:19;;;;;;;1.40;1.30;;;23.80;47.60;;;;;;5118343;28;20437;-85
2022/11/08 13:08:50;;;;;;;1.90;1.70;;;23.70;47.60;;;;;;5118752;28;20474;-85
2022/11/08 13:11:21;;;;;;;5.10;1.97;;;23.60;47.60;;;;;;5118799;28;20459;-84
2022/11/08 13:13:49;;;;;;;4.87;1.50;;;23.60;47.80;;;;;;5119278;28;20451;-85
2022/11/08 13:16:19;;;;;;;2.60;1.40;;;23.50;47.80;;;;;;5122612;28;20443;-83
2022/11/08 13:18:51;;;;;;;2.77;1.50;;;23.50;47.80;;;;;;5123736;28;20450;-85
2022/11/08 13:21:46;;;;;;;3.37;1.40;;;23.40;47.60;;;;;;5122100;28;20440;-85
2022/11/08 13:24:35;;;;;;;1.70;1.60;;;23.40;47.80;;;;;;5088566;28;20468;-83